Time;durP1;ratioP1;P1;durP2;ratioP2;P2;SDS_P1;SDS_P2;PMS_P1;PMS_P2;Temp;Humidity;BMP_temperature;BMP_pressure;BME280_temperature;BME280_humidity;BME280_pressure;Samples;Min_cycle;Max_cycle;Signal;HPM_P1;HPM_P2
2022/08/29 00:02:50;;;;;;;7.32;2.25;;;15.80;62.30;;;;;;9176640;19;20952;-65
2022/08/29 00:05:55;;;;;;;7.50;2.30;;;15.70;62.30;;;;;;9177877;19;20015;-64
2022/08/29 00:09:01;;;;;;;6.03;2.55;;;15.70;62.40;;;;;;9175762;19;20022;-64
2022/08/29 00:12:07;;;;;;;10.25;2.78;;;15.60;62.50;;;;;;9175422;19;20380;-65
2022/08/29 00:15:15;;;;;;;12.05;4.38;;;15.60;62.60;;;;;;9175683;19;20029;-64
2022/08/29 00:18:22;;;;;;;10.40;2.88;;;15.60;62.80;;;;;;9175559;19;20014;-65
2022/08/29 00:21:27;;;;;;;8.45;3.20;;;15.60;62.80;;;;;;9176897;19;20014;-63
2022/08/29 00:24:32;;;;;;;6.60;2.72;;;15.50;62.90;;;;;;9177543;19;20086;-64
2022/08/29 00:27:37;;;;;;;5.32;2.58;;;15.50;63.00;;;;;;9172454;19;20022;-64
2022/08/29 00:30:46;;;;;;;14.40;2.97;;;15.50;63.10;;;;;;9176751;19;20094;-64
2022/08/29 00:33:51;;;;;;;10.30;3.03;;;15.50;63.30;;;;;;9176702;19;20019;-66
2022/08/29 00:36:56;;;;;;;8.30;2.22;;;15.50;63.30;;;;;;9177046;19;20010;-64
2022/08/29 00:40:01;;;;;;;6.10;2.40;;;15.50;63.40;;;;;;9174217;19;20058;-64
2022/08/29 00:43:09;;;;;;;10.80;2.95;;;15.50;63.50;;;;;;9177301;19;20021;-63
2022/08/29 00:46:40;;;;;;;5.57;2.55;;;15.50;63.60;;;;;;9176907;19;20018;-64
2022/08/29 00:49:47;;;;;;;6.50;2.15;;;15.50;63.90;;;;;;9176520;19;20463;-64
2022/08/29 00:52:54;;;;;;;7.88;2.75;;;15.50;63.70;;;;;;9175886;19;20007;-64
2022/08/29 00:55:59;;;;;;;9.15;2.55;;;15.50;63.70;;;;;;9175700;19;20642;-65
2022/08/29 00:59:09;;;;;;;6.43;2.50;;;15.60;63.80;;;;;;9175589;19;20018;-64
2022/08/29 01:02:17;;;;;;;10.45;2.80;;;15.50;63.90;;;;;;9176062;19;20025;-64
2022/08/29 01:05:23;;;;;;;6.13;2.90;;;15.60;64.00;;;;;;9173661;19;20025;-65
2022/08/29 01:08:28;;;;;;;13.15;2.72;;;15.60;64.00;;;;;;9184401;19;20019;-63
2022/08/29 01:14:54;;;;;;;6.13;2.58;;;15.60;64.00;;;;;;9184445;19;20114;-63
2022/08/29 01:18:04;;;;;;;6.57;2.63;;;15.60;64.10;;;;;;9183967;19;20018;-64
2022/08/29 01:21:17;;;;;;;7.03;4.03;;;15.60;64.10;;;;;;9182539;19;20022;-64
2022/08/29 01:24:43;;;;;;;10.93;3.20;;;15.60;64.20;;;;;;9184385;19;20629;-64
2022/08/29 01:27:52;;;;;;;7.03;3.00;;;15.60;64.40;;;;;;9180169;19;20010;-64
2022/08/29 01:31:05;;;;;;;7.68;2.83;;;15.60;64.10;;;;;;9183395;19;20035;-64
2022/08/29 01:34:11;;;;;;;13.27;3.38;;;15.60;64.20;;;;;;9183896;19;20015;-63
2022/08/29 01:37:17;;;;;;;6.75;2.72;;;15.60;64.20;;;;;;9183374;19;20014;-63
2022/08/29 01:40:30;;;;;;;9.23;2.75;;;15.60;64.30;;;;;;9182299;19;20042;-64
2022/08/29 01:43:42;;;;;;;5.18;2.50;;;15.60;64.40;;;;;;9182404;19;20376;-64
2022/08/29 01:46:48;;;;;;;11.68;3.38;;;15.60;64.50;;;;;;9182396;19;20018;-64
2022/08/29 01:49:54;;;;;;;9.02;2.60;;;15.60;64.40;;;;;;9182370;19;20022;-63
2022/08/29 01:52:59;;;;;;;6.10;3.38;;;15.50;64.40;;;;;;9181612;19;20018;-63
2022/08/29 01:56:14;;;;;;;8.88;3.42;;;15.60;64.50;;;;;;9182365;19;20025;-63
2022/08/29 01:59:22;;;;;;;8.50;3.10;;;15.50;64.70;;;;;;9183082;19;20014;-63
2022/08/29 02:02:29;;;;;;;6.85;2.72;;;15.50;64.60;;;;;;9179356;19;20041;-63
2022/08/29 02:05:35;;;;;;;7.18;2.70;;;15.50;64.60;;;;;;9183571;19;20010;-63
2022/08/29 02:08:41;;;;;;;6.13;2.97;;;15.50;64.60;;;;;;9182238;19;20030;-63
2022/08/29 02:11:49;;;;;;;4.47;2.63;;;15.50;64.70;;;;;;9181335;19;20010;-62
2022/08/29 02:14:55;;;;;;;7.20;2.80;;;15.40;64.70;;;;;;9181772;19;20486;-65
2022/08/29 02:18:00;;;;;;;5.72;2.67;;;15.40;64.70;;;;;;9179345;19;20018;-62
2022/08/29 02:21:24;;;;;;;4.55;2.42;;;15.40;64.80;;;;;;9181500;19;20086;-63
2022/08/29 02:24:29;;;;;;;10.70;2.97;;;15.40;64.80;;;;;;9181883;19;20021;-64
2022/08/29 02:27:36;;;;;;;6.88;2.65;;;15.30;64.80;;;;;;9178468;19;20022;-66
2022/08/29 02:30:42;;;;;;;8.82;3.22;;;15.30;64.90;;;;;;9181242;19;20018;-63
2022/08/29 02:33:47;;;;;;;7.75;3.15;;;15.30;65.00;;;;;;9179227;19;20014;-65
2022/08/29 02:36:53;;;;;;;6.47;2.80;;;15.20;64.90;;;;;;9181987;19;20007;-64
2022/08/29 02:40:00;;;;;;;6.40;2.80;;;15.20;65.00;;;;;;9180115;19;20025;-63
2022/08/29 02:43:08;;;;;;;6.25;2.80;;;15.20;65.00;;;;;;9181064;19;20027;-64
2022/08/29 02:46:18;;;;;;;6.03;2.75;;;15.20;65.10;;;;;;9180803;19;20011;-65
2022/08/29 02:49:23;;;;;;;7.32;3.53;;;15.10;65.20;;;;;;9181368;19;20360;-63
2022/08/29 02:52:28;;;;;;;5.03;2.70;;;15.10;65.10;;;;;;9180055;19;20380;-64
2022/08/29 02:55:37;;;;;;;11.43;4.35;;;15.10;65.20;;;;;;9179734;19;20519;-64
2022/08/29 02:58:45;;;;;;;6.25;3.33;;;15.10;65.20;;;;;;9177690;19;20395;-65
2022/08/29 03:01:50;;;;;;;10.80;3.65;;;15.00;65.20;;;;;;9180074;19;20014;-64
2022/08/29 03:04:55;;;;;;;8.52;3.38;;;15.00;65.30;;;;;;9179879;19;20018;-63
2022/08/29 03:08:00;;;;;;;7.50;3.03;;;15.00;65.30;;;;;;9180007;19;20021;-63
2022/08/29 03:11:06;;;;;;;8.70;3.35;;;15.00;65.40;;;;;;9180220;19;20015;-65
2022/08/29 03:14:13;;;;;;;4.90;2.80;;;15.00;65.50;;;;;;9176750;19;20021;-65
2022/08/29 03:17:19;;;;;;;5.28;3.35;;;15.00;65.50;;;;;;9179969;19;20031;-63
2022/08/29 03:20:26;;;;;;;8.75;3.20;;;15.00;65.60;;;;;;9179589;19;20019;-63
2022/08/29 03:23:31;;;;;;;7.65;3.83;;;14.90;65.60;;;;;;9179406;19;20010;-63
2022/08/29 03:26:36;;;;;;;7.75;3.15;;;14.90;65.60;;;;;;9175168;19;20017;-63
2022/08/29 03:29:43;;;;;;;8.00;3.45;;;14.90;65.70;;;;;;9177641;19;20019;-63
2022/08/29 03:32:48;;;;;;;6.28;2.92;;;14.90;65.70;;;;;;9178020;19;20018;-64
2022/08/29 03:35:53;;;;;;;10.50;3.20;;;14.90;65.70;;;;;;9177934;19;20055;-64
2022/08/29 03:38:58;;;;;;;7.15;3.30;;;14.90;65.80;;;;;;9179001;19;20022;-63
2022/08/29 03:42:03;;;;;;;7.10;2.95;;;14.90;65.80;;;;;;9178122;19;20014;-64
2022/08/29 03:45:13;;;;;;;6.93;3.05;;;14.90;65.90;;;;;;9179231;19;20018;-62
2022/08/29 03:48:18;;;;;;;6.68;3.15;;;14.90;66.00;;;;;;9178400;19;20025;-62
2022/08/29 03:51:23;;;;;;;10.52;3.53;;;14.90;66.00;;;;;;9178466;19;20007;-63
2022/08/29 03:54:34;;;;;;;7.25;3.17;;;14.90;66.00;;;;;;9176131;19;20021;-64
2022/08/29 03:57:38;;;;;;;7.53;3.25;;;14.90;66.10;;;;;;9177646;19;20015;-64
2022/08/29 04:00:47;;;;;;;9.13;3.25;;;14.80;66.10;;;;;;9177452;19;20393;-62
2022/08/29 04:03:52;;;;;;;7.57;3.67;;;14.80;66.20;;;;;;9176934;19;20015;-66
2022/08/29 04:06:57;;;;;;;12.15;3.15;;;14.80;66.20;;;;;;9177187;19;20026;-66
2022/08/29 04:10:05;;;;;;;6.95;3.30;;;14.90;66.30;;;;;;9177458;19;20014;-62
2022/08/29 04:13:11;;;;;;;6.45;3.63;;;14.80;66.30;;;;;;9177174;19;20013;-62
2022/08/29 04:16:21;;;;;;;5.75;3.70;;;14.90;66.40;;;;;;9177739;19;20021;-65
2022/08/29 04:19:26;;;;;;;7.25;3.25;;;14.90;66.50;;;;;;9177134;19;20125;-62
2022/08/29 04:22:31;;;;;;;8.40;3.33;;;14.90;66.50;;;;;;9176280;19;21295;-63
2022/08/29 04:25:37;;;;;;;11.57;3.20;;;14.90;66.50;;;;;;9177880;19;20025;-63
2022/08/29 04:28:42;;;;;;;7.60;3.35;;;14.80;66.50;;;;;;9173276;19;20025;-62
2022/08/29 04:31:49;;;;;;;6.68;3.53;;;14.80;66.50;;;;;;9177028;19;20601;-62
2022/08/29 04:34:58;;;;;;;8.68;3.67;;;14.90;66.60;;;;;;9174655;19;20038;-64
2022/08/29 04:38:02;;;;;;;7.90;3.50;;;14.90;66.70;;;;;;9175671;19;20022;-64
2022/08/29 04:41:09;;;;;;;12.90;3.90;;;14.90;66.60;;;;;;9179207;19;20814;-63
2022/08/29 04:44:14;;;;;;;9.98;3.17;;;14.90;66.70;;;;;;9186112;19;20002;-62
2022/08/29 04:47:22;;;;;;;9.43;4.80;;;14.90;66.70;;;;;;9185471;19;20018;-65
2022/08/29 04:50:27;;;;;;;13.93;3.53;;;14.90;66.80;;;;;;9182159;19;20014;-62
2022/08/29 04:53:33;;;;;;;8.50;3.60;;;14.80;66.70;;;;;;9184762;19;20007;-63
2022/08/29 04:56:38;;;;;;;7.70;3.53;;;14.90;66.80;;;;;;9181997;19;20018;-63
2022/08/29 04:59:55;;;;;;;14.40;3.50;;;14.90;66.80;;;;;;9185734;19;20017;-64
2022/08/29 05:03:03;;;;;;;6.70;3.08;;;14.90;66.90;;;;;;9184481;19;20022;-64
2022/08/29 05:06:10;;;;;;;11.68;3.72;;;14.80;66.80;;;;;;9185518;19;20118;-63
2022/08/29 05:09:15;;;;;;;9.40;3.60;;;14.90;66.90;;;;;;9184680;19;20037;-64
2022/08/29 05:12:20;;;;;;;15.60;4.32;;;14.90;66.90;;;;;;9184509;19;20472;-64
2022/08/29 05:15:25;;;;;;;12.90;5.10;;;14.80;66.90;;;;;;9181720;19;20014;-64
2022/08/29 05:18:33;;;;;;;16.15;4.88;;;14.80;67.00;;;;;;9184479;19;20010;-63
2022/08/29 05:21:40;;;;;;;14.27;4.13;;;14.80;67.10;;;;;;9176114;19;20349;-62
2022/08/29 05:24:45;;;;;;;14.57;3.75;;;14.80;67.10;;;;;;9184086;19;20348;-64
2022/08/29 05:27:51;;;;;;;11.43;4.43;;;14.80;67.10;;;;;;9179292;19;20464;-63
2022/08/29 05:30:57;;;;;;;9.73;4.15;;;14.80;67.20;;;;;;9185036;19;20019;-64
2022/08/29 05:34:06;;;;;;;9.57;4.28;;;14.80;67.20;;;;;;9182090;19;20038;-63
2022/08/29 05:37:31;;;;;;;12.02;4.43;;;14.80;67.30;;;;;;9183818;19;20039;-64
2022/08/29 05:40:37;;;;;;;8.77;3.80;;;14.90;67.30;;;;;;9180723;19;20030;-63
2022/08/29 05:43:42;;;;;;;8.65;4.07;;;14.90;67.40;;;;;;9180620;19;20574;-64
2022/08/29 05:46:47;;;;;;;10.50;4.78;;;14.90;67.40;;;;;;9181243;19;20372;-63
2022/08/29 05:49:55;;;;;;;12.60;4.70;;;14.90;67.40;;;;;;9183401;19;20021;-65
2022/08/29 05:53:00;;;;;;;9.18;3.70;;;15.00;67.60;;;;;;9182683;19;20019;-64
2022/08/29 05:56:05;;;;;;;10.02;4.32;;;14.90;67.50;;;;;;9180154;19;20456;-64
2022/08/29 05:59:10;;;;;;;11.48;4.13;;;15.00;67.60;;;;;;9182120;19;20022;-63
2022/08/29 06:02:16;;;;;;;15.70;4.55;;;15.00;67.60;;;;;;9182018;19;20343;-63
2022/08/29 06:05:24;;;;;;;12.18;4.25;;;15.10;67.70;;;;;;9179024;19;20019;-64
2022/08/29 06:08:29;;;;;;;10.85;4.65;;;15.10;67.80;;;;;;9183116;19;20015;-63
2022/08/29 06:11:35;;;;;;;16.95;5.35;;;15.20;67.90;;;;;;9175768;19;20022;-64
2022/08/29 06:14:40;;;;;;;12.20;4.80;;;15.20;67.90;;;;;;9175930;19;20294;-65
2022/08/29 06:17:53;;;;;;;14.82;5.55;;;15.20;68.00;;;;;;9174965;19;20528;-67
2022/08/29 06:21:04;;;;;;;11.30;5.22;;;15.30;67.90;;;;;;9176078;19;20741;-66
2022/08/29 06:24:10;;;;;;;11.07;5.15;;;15.30;68.00;;;;;;9181415;19;20534;-63
2022/08/29 06:27:16;;;;;;;13.25;5.63;;;15.40;68.10;;;;;;9175981;19;20018;-65
2022/08/29 06:30:21;;;;;;;14.57;5.68;;;15.50;68.10;;;;;;9182917;19;20022;-68
2022/08/29 06:33:26;;;;;;;9.82;5.20;;;15.50;68.00;;;;;;9181251;19;20368;-65
2022/08/29 06:36:35;;;;;;;16.30;6.45;;;15.50;68.10;;;;;;9178546;19;20483;-65
2022/08/29 06:39:40;;;;;;;19.38;5.95;;;15.60;68.10;;;;;;9178714;19;20021;-65
2022/08/29 06:42:45;;;;;;;12.80;4.78;;;15.60;68.10;;;;;;9178709;19;20019;-62
2022/08/29 06:45:50;;;;;;;17.48;6.10;;;15.70;68.10;;;;;;9181560;19;20029;-64
2022/08/29 06:48:57;;;;;;;10.52;5.07;;;15.80;68.20;;;;;;9182275;19;20048;-66
2022/08/29 06:52:05;;;;;;;12.75;4.78;;;15.80;68.10;;;;;;9177006;19;20023;-63
2022/08/29 06:55:12;;;;;;;11.70;5.18;;;15.90;68.20;;;;;;9174195;19;20013;-63
2022/08/29 06:58:18;;;;;;;12.02;4.57;;;15.90;68.10;;;;;;9180279;19;20367;-65
2022/08/29 07:01:24;;;;;;;11.55;5.40;;;16.00;68.10;;;;;;9183344;19;20018;-63
2022/08/29 07:04:30;;;;;;;12.60;4.88;;;16.00;68.10;;;;;;9180133;19;20480;-63
2022/08/29 07:07:40;;;;;;;17.58;5.82;;;16.10;68.20;;;;;;9182269;19;20022;-63
2022/08/29 07:10:46;;;;;;;13.70;5.53;;;16.10;68.20;;;;;;9182374;19;20028;-63
2022/08/29 07:13:51;;;;;;;10.43;4.90;;;16.20;68.20;;;;;;9181899;19;20018;-63
2022/08/29 07:16:56;;;;;;;10.50;5.90;;;16.30;68.20;;;;;;9182756;19;20121;-66
2022/08/29 07:20:02;;;;;;;13.20;4.80;;;16.30;68.20;;;;;;9181868;19;20034;-63
2022/08/29 07:23:10;;;;;;;14.77;4.55;;;16.40;68.20;;;;;;9181501;19;20018;-63
2022/08/29 07:26:19;;;;;;;17.05;5.82;;;16.40;68.30;;;;;;9181729;19;20013;-62
2022/08/29 07:29:24;;;;;;;20.08;5.90;;;16.50;68.30;;;;;;9180675;19;20042;-62
2022/08/29 07:32:29;;;;;;;11.65;4.65;;;16.50;68.30;;;;;;9180307;19;20014;-62
2022/08/29 07:35:34;;;;;;;18.08;5.30;;;16.60;68.40;;;;;;9180873;19;20398;-64
2022/08/29 07:38:42;;;;;;;15.80;4.72;;;16.70;68.40;;;;;;9179474;19;20026;-65
2022/08/29 07:41:48;;;;;;;12.82;5.32;;;16.70;68.40;;;;;;9181625;19;20006;-64
2022/08/29 07:44:53;;;;;;;12.55;4.93;;;16.80;68.40;;;;;;9181260;19;20471;-63
2022/08/29 07:47:58;;;;;;;23.95;5.18;;;16.90;68.50;;;;;;9180963;19;20015;-65
2022/08/29 07:51:03;;;;;;;17.50;5.65;;;17.00;68.50;;;;;;9181391;19;20034;-62
2022/08/29 07:54:17;;;;;;;25.77;4.70;;;17.10;68.60;;;;;;9178334;19;20545;-63
2022/08/29 07:57:22;;;;;;;21.77;4.13;;;17.30;68.70;;;;;;9169818;19;20027;-63
2022/08/29 08:00:27;;;;;;;9.88;3.97;;;17.40;68.70;;;;;;9181271;19;20019;-64
2022/08/29 08:03:32;;;;;;;17.30;3.72;;;17.50;68.70;;;;;;9174832;19;20031;-67
2022/08/29 08:06:39;;;;;;;10.05;4.00;;;17.70;68.80;;;;;;9173201;19;20506;-64
2022/08/29 08:09:48;;;;;;;15.13;4.43;;;17.80;69.40;;;;;;9173980;19;20026;-65
2022/08/29 08:12:53;;;;;;;24.42;4.20;;;17.90;68.80;;;;;;9171937;19;20042;-66
2022/08/29 08:15:59;;;;;;;22.95;4.43;;;18.00;68.80;;;;;;9174262;19;20022;-66
2022/08/29 08:19:04;;;;;;;16.90;4.40;;;18.20;68.80;;;;;;9186580;19;20026;-64
2022/08/29 08:22:09;;;;;;;7.28;3.50;;;18.30;68.80;;;;;;9187389;19;20010;-64
2022/08/29 08:25:16;;;;;;;15.02;3.95;;;18.50;68.80;;;;;;9186641;19;20018;-64
2022/08/29 08:28:29;;;;;;;15.50;4.13;;;18.60;68.80;;;;;;9179729;19;20131;-66
2022/08/29 08:31:34;;;;;;;10.65;3.70;;;18.80;68.70;;;;;;9181251;19;20086;-65
2022/08/29 08:34:39;;;;;;;12.80;3.60;;;18.90;68.60;;;;;;9180995;19;20369;-64
2022/08/29 08:37:44;;;;;;;9.63;4.05;;;19.10;68.60;;;;;;9182134;19;20017;-66
2022/08/29 08:41:01;;;;;;;9.07;3.20;;;19.20;68.50;;;;;;9178736;19;20018;-65
2022/08/29 08:44:12;;;;;;;14.38;3.60;;;19.40;68.60;;;;;;9182174;19;20015;-65
2022/08/29 08:47:24;;;;;;;7.72;3.35;;;19.50;68.40;;;;;;9181430;19;20026;-65
2022/08/29 08:50:36;;;;;;;12.27;3.50;;;19.60;68.30;;;;;;9180155;19;20018;-67
2022/08/29 08:53:44;;;;;;;8.38;3.38;;;19.80;68.30;;;;;;9180152;19;20023;-66
2022/08/29 08:56:59;;;;;;;6.68;2.90;;;19.90;68.10;;;;;;9179516;19;20022;-66
2022/08/29 09:00:09;;;;;;;8.63;3.95;;;20.00;67.90;;;;;;9183150;19;20018;-67
2022/08/29 09:03:50;;;;;;;8.63;3.13;;;20.20;67.70;;;;;;9181210;19;20029;-65
2022/08/29 09:07:07;;;;;;;10.38;3.22;;;20.30;67.70;;;;;;9182678;19;20022;-67
2022/08/29 09:10:22;;;;;;;11.73;3.80;;;20.40;67.40;;;;;;9181976;19;20042;-66
2022/08/29 09:13:45;;;;;;;13.43;3.40;;;20.40;67.30;;;;;;9182310;19;20022;-66
2022/08/29 09:16:54;;;;;;;10.88;3.60;;;20.50;67.30;;;;;;9178703;19;20503;-65
2022/08/29 09:19:59;;;;;;;13.38;4.45;;;20.60;67.20;;;;;;9179504;19;20030;-66
2022/08/29 09:23:11;;;;;;;9.35;3.40;;;20.70;67.10;;;;;;9181656;19;20034;-64
2022/08/29 09:26:19;;;;;;;13.38;3.47;;;20.70;67.10;;;;;;9180056;19;20021;-65
2022/08/29 09:29:30;;;;;;;6.05;2.83;;;20.80;67.00;;;;;;9180238;19;20358;-66
2022/08/29 09:32:36;;;;;;;10.90;2.97;;;20.90;67.10;;;;;;9177245;19;20480;-65
2022/08/29 09:35:44;;;;;;;5.15;2.58;;;20.90;66.80;;;;;;9177929;19;20368;-66
2022/08/29 09:38:49;;;;;;;8.60;2.92;;;20.90;66.70;;;;;;9180034;19;20026;-65
2022/08/29 09:41:56;;;;;;;12.18;2.85;;;21.00;66.70;;;;;;9183726;19;20014;-67
2022/08/29 09:45:09;;;;;;;11.77;2.33;;;21.00;66.60;;;;;;9185457;19;20014;-66
2022/08/29 09:48:18;;;;;;;8.13;2.60;;;21.10;66.70;;;;;;9184432;19;20025;-66
2022/08/29 09:51:27;;;;;;;12.25;2.40;;;21.10;66.60;;;;;;9179824;19;20022;-65
2022/08/29 09:54:32;;;;;;;11.98;2.85;;;21.10;66.50;;;;;;9179882;19;20021;-66
2022/08/29 09:57:38;;;;;;;9.50;2.10;;;21.10;66.50;;;;;;9176712;19;20014;-66
2022/08/29 10:01:01;;;;;;;11.65;2.38;;;21.20;66.50;;;;;;9180683;19;20027;-68
2022/08/29 10:04:09;;;;;;;5.63;2.13;;;21.20;66.50;;;;;;9185240;19;20110;-67
2022/08/29 10:07:19;;;;;;;6.15;2.85;;;21.20;66.30;;;;;;9181640;19;20022;-66
2022/08/29 10:10:28;;;;;;;8.25;2.45;;;21.20;66.30;;;;;;9180629;19;20022;-66
2022/08/29 10:13:42;;;;;;;6.30;2.30;;;21.20;66.30;;;;;;9178286;19;20028;-66
2022/08/29 10:16:55;;;;;;;9.25;2.20;;;21.20;66.30;;;;;;9177010;19;20023;-66
2022/08/29 10:20:00;;;;;;;8.68;1.85;;;21.20;66.30;;;;;;9177022;19;20029;-66
2022/08/29 10:23:11;;;;;;;6.22;2.13;;;21.20;66.30;;;;;;9179168;19;20014;-66
2022/08/29 10:26:28;;;;;;;8.13;2.30;;;21.30;66.30;;;;;;9177435;19;20033;-67
2022/08/29 10:29:54;;;;;;;5.43;2.53;;;21.30;66.30;;;;;;9177905;19;20017;-66
2022/08/29 10:33:18;;;;;;;11.82;2.40;;;21.30;66.20;;;;;;9178155;19;20019;-66
2022/08/29 10:36:30;;;;;;;6.10;1.98;;;21.50;66.20;;;;;;9175351;19;20095;-66
2022/08/29 10:39:44;;;;;;;7.38;1.98;;;21.60;66.10;;;;;;9168697;19;20038;-65
2022/08/29 10:42:52;;;;;;;10.23;2.05;;;21.70;66.00;;;;;;9176535;19;20388;-66
2022/08/29 10:46:18;;;;;;;11.65;2.35;;;21.80;65.80;;;;;;9166846;19;20508;-64
2022/08/29 10:49:43;;;;;;;5.85;1.80;;;21.90;65.60;;;;;;9172324;19;20070;-67
2022/08/29 10:52:57;;;;;;;6.88;2.17;;;22.00;65.40;;;;;;9171288;19;20022;-65
2022/08/29 10:56:05;;;;;;;;;;;22.10;65.20;;;;;;9171558;19;20026;-64
2022/08/29 10:59:19;;;;;;;7.05;2.03;;;22.30;65.20;;;;;;9171293;19;20341;-63
2022/08/29 11:02:31;;;;;;;8.25;2.30;;;22.40;65.10;;;;;;9167223;19;20031;-63
2022/08/29 11:05:44;;;;;;;11.65;2.25;;;22.40;64.90;;;;;;9169571;19;20360;-63
2022/08/29 11:08:56;;;;;;;7.83;2.50;;;22.50;64.70;;;;;;9168421;19;20018;-64
2022/08/29 11:12:07;;;;;;;8.63;2.00;;;22.70;64.60;;;;;;9169620;19;20016;-63
2022/08/29 11:15:20;;;;;;;5.47;1.77;;;22.70;64.40;;;;;;9171769;19;20029;-64
2022/08/29 11:18:28;;;;;;;10.15;2.45;;;22.70;64.20;;;;;;9170288;19;20022;-63
2022/08/29 11:21:41;;;;;;;6.22;3.13;;;22.80;64.20;;;;;;9169807;19;20026;-64
2022/08/29 11:24:50;;;;;;;6.13;2.10;;;22.80;64.10;;;;;;9169373;19;20514;-64
2022/08/29 11:28:05;;;;;;;5.90;2.00;;;22.90;64.10;;;;;;9166224;19;20018;-66
2022/08/29 11:31:17;;;;;;;4.20;2.13;;;22.90;63.90;;;;;;9170218;19;20027;-66
2022/08/29 11:34:33;;;;;;;6.65;2.30;;;23.00;63.80;;;;;;9169879;19;20820;-64
2022/08/29 11:38:14;;;;;;;14.38;2.67;;;23.00;63.70;;;;;;9170191;19;20569;-65
2022/08/29 11:41:28;;;;;;;7.20;1.83;;;23.10;63.50;;;;;;9167532;19;20023;-64
2022/08/29 11:44:38;;;;;;;5.22;1.90;;;23.20;63.50;;;;;;9168328;19;20090;-64
2022/08/29 11:48:00;;;;;;;9.20;2.08;;;23.20;63.40;;;;;;9167893;19;20779;-67
2022/08/29 11:51:32;;;;;;;4.68;2.03;;;23.20;63.20;;;;;;9168918;19;20029;-64
2022/08/29 11:54:55;;;;;;;;;;;23.30;63.20;;;;;;9170197;19;20533;-65
2022/08/29 11:58:23;;;;;;;6.00;1.92;;;23.30;63.30;;;;;;9167584;19;19930;-66
2022/08/29 12:01:56;;;;;;;8.60;1.88;;;23.30;63.10;;;;;;9169143;19;20090;-64
2022/08/29 12:05:03;;;;;;;5.88;2.00;;;23.40;63.10;;;;;;9169052;19;20559;-66
2022/08/29 12:08:17;;;;;;;6.10;2.03;;;23.40;63.00;;;;;;9167976;19;20030;-67
2022/08/29 12:12:11;;;;;;;4.90;1.77;;;23.50;62.90;;;;;;9168674;19;20041;-66
2022/08/29 12:15:53;;;;;;;6.63;1.90;;;23.50;62.70;;;;;;9169070;19;20486;-66
2022/08/29 12:18:59;;;;;;;5.68;1.58;;;23.60;62.60;;;;;;9164657;19;20113;-66
2022/08/29 12:22:04;;;;;;;4.45;1.90;;;23.70;62.70;;;;;;9166485;19;20036;-66
2022/08/29 12:25:43;;;;;;;5.45;1.98;;;23.80;62.50;;;;;;9163024;19;20476;-67
2022/08/29 12:28:50;;;;;;;5.28;1.70;;;24.00;62.40;;;;;;9163008;19;20510;-66
2022/08/29 12:32:22;;;;;;;10.07;2.47;;;24.10;62.30;;;;;;9166184;19;20022;-67
2022/08/29 12:35:53;;;;;;;7.78;1.75;;;24.30;61.80;;;;;;9167305;19;20095;-67
2022/08/29 12:39:20;;;;;;;9.80;2.72;;;24.40;61.40;;;;;;9164413;19;20082;-67
2022/08/29 12:42:39;;;;;;;11.55;2.33;;;24.60;61.30;;;;;;9166095;19;20014;-67
2022/08/29 12:45:46;;;;;;;4.80;1.85;;;24.70;61.10;;;;;;9168360;19;20034;-65
2022/08/29 12:49:00;;;;;;;7.05;1.80;;;24.80;60.90;;;;;;9166813;19;20014;-66
2022/08/29 12:52:08;;;;;;;3.45;1.88;;;24.80;60.50;;;;;;9165831;19;20030;-67
2022/08/29 12:55:22;;;;;;;9.00;1.98;;;24.80;60.40;;;;;;9168476;19;20360;-66
2022/08/29 12:58:38;;;;;;;3.90;1.75;;;24.90;60.20;;;;;;9164419;19;20023;-66
2022/08/29 13:01:48;;;;;;;10.80;2.00;;;24.90;60.20;;;;;;9167828;19;20678;-66
2022/08/29 13:05:01;;;;;;;5.93;2.00;;;25.00;60.10;;;;;;9173963;19;20491;-66
2022/08/29 13:08:09;;;;;;;8.05;1.98;;;25.00;60.10;;;;;;9173282;19;20526;-67
2022/08/29 13:11:22;;;;;;;7.28;2.22;;;25.00;59.90;;;;;;9178306;19;20011;-66
2022/08/29 13:14:27;;;;;;;4.10;1.98;;;25.00;59.70;;;;;;9179588;19;20021;-67
2022/08/29 13:17:34;;;;;;;6.00;2.05;;;25.10;59.70;;;;;;9173836;19;20010;-67
2022/08/29 13:20:49;;;;;;;10.48;2.55;;;25.10;59.50;;;;;;9178390;19;20605;-66
2022/08/29 13:24:01;;;;;;;8.95;1.85;;;25.10;59.20;;;;;;9176939;19;20023;-65
2022/08/29 13:27:09;;;;;;;3.67;1.88;;;25.10;59.00;;;;;;9173940;19;20488;-65
2022/08/29 13:30:23;;;;;;;4.90;1.90;;;25.20;59.10;;;;;;9176441;19;20033;-65
2022/08/29 13:33:32;;;;;;;4.22;1.60;;;25.20;58.80;;;;;;9172895;19;20528;-66
2022/08/29 13:36:46;;;;;;;7.32;2.25;;;25.20;58.90;;;;;;9175391;19;20026;-66
2022/08/29 13:39:51;;;;;;;7.97;2.20;;;25.20;58.70;;;;;;9171426;19;20018;-66
2022/08/29 13:42:57;;;;;;;5.25;1.75;;;25.20;58.60;;;;;;9177259;19;20026;-66
2022/08/29 13:46:08;;;;;;;6.80;1.95;;;25.30;58.60;;;;;;9173421;19;20018;-66
2022/08/29 13:49:21;;;;;;;5.78;2.03;;;25.30;58.40;;;;;;9171509;19;20019;-65
2022/08/29 13:52:30;;;;;;;7.13;2.10;;;25.40;58.30;;;;;;9174234;19;20018;-67
2022/08/29 13:55:36;;;;;;;9.65;1.92;;;25.50;58.20;;;;;;9173704;19;20023;-67
2022/08/29 13:58:41;;;;;;;5.18;2.20;;;25.60;58.00;;;;;;9171236;19;20019;-66
2022/08/29 14:01:46;;;;;;;8.02;2.50;;;25.70;57.80;;;;;;9176870;19;20022;-65
2022/08/29 14:05:12;;;;;;;8.50;1.90;;;25.80;57.60;;;;;;9172435;19;20018;-68
2022/08/29 14:08:19;;;;;;;7.30;2.00;;;25.90;57.60;;;;;;9173829;19;20018;-68
2022/08/29 14:11:24;;;;;;;8.10;2.30;;;25.90;57.30;;;;;;9170839;19;20022;-66
2022/08/29 14:14:29;;;;;;;7.53;2.08;;;26.00;57.20;;;;;;9175430;19;20026;-67
2022/08/29 14:17:34;;;;;;;5.07;1.65;;;26.10;56.90;;;;;;9171019;19;20069;-65
2022/08/29 14:20:39;;;;;;;6.63;1.80;;;26.10;56.70;;;;;;9176517;19;20830;-71
2022/08/29 14:23:50;;;;;;;7.20;1.95;;;26.20;56.60;;;;;;9171690;19;20026;-67
2022/08/29 14:26:55;;;;;;;9.52;2.30;;;26.20;56.30;;;;;;9174377;19;20021;-67
2022/08/29 14:30:07;;;;;;;4.03;1.60;;;26.20;56.30;;;;;;9182774;19;20082;-69
2022/08/29 14:33:12;;;;;;;3.15;1.48;;;26.30;56.10;;;;;;9182837;19;20792;-68
2022/08/29 14:36:18;;;;;;;3.72;1.73;;;26.30;55.90;;;;;;9182749;19;20021;-68
2022/08/29 14:39:32;;;;;;;6.63;1.52;;;26.40;55.90;;;;;;9178590;19;20023;-68
2022/08/29 14:42:37;;;;;;;4.85;1.67;;;26.40;55.70;;;;;;9183175;19;20049;-69
2022/08/29 14:45:42;;;;;;;6.50;1.98;;;26.40;55.60;;;;;;9183487;19;20018;-69
2022/08/29 14:48:47;;;;;;;5.45;1.80;;;26.40;55.50;;;;;;9182838;19;20029;-68
2022/08/29 14:51:52;;;;;;;9.75;1.83;;;26.40;55.40;;;;;;9181247;19;20014;-69
2022/08/29 14:55:00;;;;;;;6.32;1.42;;;26.40;55.20;;;;;;9181918;19;20476;-70
2022/08/29 14:58:05;;;;;;;7.15;1.80;;;26.40;55.00;;;;;;9182381;19;20095;-69
2022/08/29 15:01:11;;;;;;;6.10;1.92;;;26.50;55.00;;;;;;9182165;19;20487;-69
2022/08/29 15:04:16;;;;;;;7.30;1.65;;;26.50;55.00;;;;;;9182532;19;20464;-69
2022/08/29 15:07:25;;;;;;;2.55;1.40;;;26.50;55.00;;;;;;9181827;19;20022;-68
2022/08/29 15:10:33;;;;;;;5.13;1.80;;;26.40;55.40;;;;;;9182030;19;20026;-68
2022/08/29 15:13:38;;;;;;;13.45;2.05;;;26.50;54.80;;;;;;9180029;19;20023;-68
2022/08/29 15:16:43;;;;;;;9.35;1.95;;;26.40;54.90;;;;;;9181348;19;20015;-68
2022/08/29 15:19:48;;;;;;;9.48;2.00;;;26.40;54.90;;;;;;9176791;19;20057;-68
2022/08/29 15:23:13;;;;;;;7.43;2.13;;;26.40;55.00;;;;;;9174281;19;20372;-69
2022/08/29 15:26:21;;;;;;;10.07;3.00;;;26.30;55.00;;;;;;9179646;19;20074;-69
2022/08/29 15:29:26;;;;;;;6.90;2.25;;;26.20;55.00;;;;;;9178886;19;20023;-67
2022/08/29 15:32:33;;;;;;;6.40;2.03;;;26.20;55.10;;;;;;9180410;19;20455;-69
2022/08/29 15:35:39;;;;;;;9.90;2.35;;;26.10;55.20;;;;;;9178760;19;20199;-68
2022/08/29 15:38:46;;;;;;;8.68;2.70;;;26.00;55.10;;;;;;9178360;19;20040;-69
2022/08/29 15:41:54;;;;;;;6.82;2.20;;;26.00;55.20;;;;;;9178580;19;20022;-67
2022/08/29 15:45:02;;;;;;;7.57;2.33;;;26.00;55.20;;;;;;9180238;19;20022;-69
2022/08/29 15:48:12;;;;;;;11.82;2.38;;;25.90;55.30;;;;;;9180172;19;20033;-68
2022/08/29 15:51:18;;;;;;;9.32;2.42;;;25.80;55.30;;;;;;9180293;19;20112;-68
2022/08/29 15:54:23;;;;;;;8.43;2.65;;;25.80;55.30;;;;;;9180644;19;20022;-68
2022/08/29 15:57:31;;;;;;;4.07;1.80;;;25.80;55.30;;;;;;9179742;19;20054;-70
2022/08/29 16:00:36;;;;;;;6.28;2.20;;;25.80;55.20;;;;;;9178112;19;20413;-69
2022/08/29 16:03:42;;;;;;;8.43;2.17;;;25.70;55.20;;;;;;9180269;19;20069;-69
2022/08/29 16:06:47;;;;;;;13.40;2.25;;;25.70;55.10;;;;;;9179653;19;20029;-69
2022/08/29 16:09:52;;;;;;;8.48;2.30;;;25.70;55.10;;;;;;9180015;19;20010;-68
2022/08/29 16:13:00;;;;;;;7.00;2.55;;;25.70;55.10;;;;;;9179692;19;20638;-69
2022/08/29 16:16:05;;;;;;;7.65;2.03;;;25.70;55.10;;;;;;9179031;19;20029;-69
2022/08/29 16:19:10;;;;;;;8.80;2.55;;;25.70;55.10;;;;;;9177734;19;20022;-68
2022/08/29 16:22:15;;;;;;;9.00;2.53;;;25.60;55.00;;;;;;9177995;19;20022;-69
2022/08/29 16:25:21;;;;;;;7.55;2.50;;;25.60;55.00;;;;;;9179157;19;20025;-72